x

Ilm3 - 27 Miles Se Of Wrightsville Beach, Nc (41037) Weather Station

7:08pm - Thu 27th Jul 2017 All times are EDT. -4 hours from GMT.

  • Wind
    11mph, 16mph gusts
  • Sea Temp 83°f
  • Air Temp 82°f
  • Sea Pressure 1014.8mb
  • Ilm3 - 27 Miles Se Of Wrightsville Beach, Nc
  • Ilm3 - 27 Miles Se Of Wrightsville Beach, Nc

More Historic Weather Station data

Upgrade to MSW Pro to gain access to the past 30 days of data for over 8000 Wavebouys and Weather Stations around the globe.

Join Pro

Comparision Forecast

View Surf forecast
   
Thu 07/27 7:08pm 11 16 mph 1014.8mb 83f 82f
6:08pm 9 13 mph 1015.1mb 84f 83f
5:08pm 7 9 mph 1015mb 84f 83f
4:08pm 9 11 mph 1015.2mb 84f 83f
3:08pm 9 11 mph 1015.9mb 84f 83f
2:08pm 7 11 mph 1016.3mb 83f 83f
1:08pm 7 9 mph 1017.4mb 83f 83f
12:08pm 7 9 mph 1018mb 83f 83f
11:08am 7 11 mph 1018.3mb 83f 83f
10:08am 9 11 mph 1018.1mb 83f 82f
9:08am 9 13 mph 1018.1mb 83f 82f
8:08am 11 13 mph 1017.9mb 83f 82f
7:08am 9 13 mph 1017.9mb 83f 81f
6:08am 11 16 mph 1018.1mb 83f 81f
5:08am 11 16 mph 1017.9mb 83f 81f
4:08am 11 16 mph 1017.8mb 83f 81f
3:08am 11 16 mph 1017.7mb 83f 81f
2:08am 11 16 mph 1017.9mb 82f 81f
1:08am 11 18 mph 1018.2mb 82f 82f
12:08am 13 20 mph 1018.7mb 82f 82f
Wed 07/26 11:08pm 16 22 mph 1018.6mb 82f 81f
10:08pm 16 22 mph 1018.6mb 82f 81f
9:08pm 16 22 mph 1018.4mb 83f 82f
8:08pm 16 22 mph 1018.2mb 83f 81f
7:08pm 16 22 mph 1018.4mb 83f 82f
6:08pm 18 25 mph 1018.2mb 83f 82f
5:08pm 18 25 mph 1018.4mb 82f 81f
4:08pm 18 25 mph 1018.8mb 82f 81f
3:08pm 16 20 mph 1019.6mb 82f 81f
2:08pm 11 18 mph 1020.2mb 82f 79f
11:08am 16 22 mph 1019.6mb 82f 80f
10:08am 18 25 mph 1019.4mb 82f 80f
9:08am 16 22 mph 1019.5mb 82f 82f
8:08am 16 22 mph 1019.1mb 82f 82f
7:08am 16 20 mph 1018.7mb 82f 82f
6:08am 18 25 mph 1018.1mb 82f 82f
5:08am 18 25 mph 1017.9mb 83f 81f
4:08am 18 25 mph 1018.1mb 83f 81f
3:08am 16 22 mph 1017.9mb 83f 81f
2:08am 4 7 mph 1018.5mb 83f 81f
1:08am 2 4 mph 1018.6mb 83f 81f
12:08am 4 9 mph 1018.6mb 82f 81f
Tue 07/25 11:08pm 7 11 mph 1018.6mb 82f 82f
10:08pm 9 13 mph 1018.2mb 82f 82f
9:08pm 11 16 mph 1017.7mb 83f 82f
8:08pm 11 18 mph 1017.4mb 83f 82f
7:08pm 13 20 mph 1016.9mb 83f 83f
6:08pm 13 18 mph 1016.8mb 84f 83f
5:08pm 13 20 mph 1017.3mb 84f 83f
4:08pm 13 20 mph 1017.2mb 84f 83f
3:08pm 11 18 mph 1017.5mb 84f 83f
2:08pm 9 13 mph 1017.7mb 84f 83f
1:08pm 11 16 mph 1017.7mb 83f 83f
12:08pm 9 13 mph 1017.8mb 83f 83f
11:08am 11 16 mph 1017.8mb 83f 82f
10:08am 11 16 mph 1017.9mb 83f 82f
9:08am 11 16 mph 1017.2mb 83f 82f
8:08am 11 18 mph 1017mb 83f 82f
7:08am 11 16 mph 1016.8mb 83f 82f
6:08am 9 13 mph 1016.6mb 83f 82f
5:08am 13 20 mph 1016mb 83f 81f
4:08am 16 22 mph 1015.7mb 83f 81f
3:08am 16 20 mph 1015.8mb 83f 81f
2:08am 18 25 mph 1015.6mb 83f 81f
1:08am 18 25 mph 1015.7mb 83f 82f
12:08am 18 25 mph 1015.4mb 83f 82f
Mon 07/24 11:08pm 20 25 mph 1015.3mb 83f 82f
10:08pm 20 27 mph 1014.8mb 83f 82f
9:08pm 22 29 mph 1014.5mb 83f 82f
8:08pm 22 29 mph 1014.4mb 83f 82f
7:08pm 22 27 mph 1013.3mb 82f 82f
6:08pm 20 27 mph 1012.8mb 82f 82f
5:08pm 18 22 mph 1013.1mb 83f 82f
4:08pm 18 25 mph 1013.2mb 83f 82f
3:08pm 20 27 mph 1013.4mb 83f 82f
2:08pm 18 27 mph 1013.7mb 83f 82f
1:08pm 18 25 mph 1014.1mb 83f 82f
12:08pm 20 27 mph 1014.2mb 83f 82f
11:08am 20 27 mph 1014.2mb 83f 82f
10:08am 18 27 mph 1013.9mb 83f 82f
9:08am 20 27 mph 1013.9mb 83f 81f
8:08am 18 22 mph 1013.7mb 83f 81f
7:08am 20 27 mph 1013.3mb 83f 82f
6:08am 22 27 mph 1012.8mb 83f 82f
5:08am 22 29 mph 1012.3mb 83f 82f
4:08am 22 31 mph 1011.9mb 83f 82f
3:08am 22 31 mph 1011.5mb 83f 82f
2:08am 22 29 mph 1011.8mb 83f 82f
1:08am 22 29 mph 1012.4mb 83f 82f